sensor_id;sensor_type;location;lat;lon;timestamp;temperature;humidity
23116;DHT22;11727;52.134;5.052;2022-09-28T00:02:01;8.60;99.90
23116;DHT22;11727;52.134;5.052;2022-09-28T00:04:27;8.60;99.90
23116;DHT22;11727;52.134;5.052;2022-09-28T00:06:53;8.60;99.90
23116;DHT22;11727;52.134;5.052;2022-09-28T00:09:18;8.60;99.90
23116;DHT22;11727;52.134;5.052;2022-09-28T00:11:45;8.60;99.90
23116;DHT22;11727;52.134;5.052;2022-09-28T00:14:11;8.60;99.90
23116;DHT22;11727;52.134;5.052;2022-09-28T00:16:39;8.60;99.90
23116;DHT22;11727;52.134;5.052;2022-09-28T00:19:05;8.60;99.90
23116;DHT22;11727;52.134;5.052;2022-09-28T00:21:34;8.70;99.90
23116;DHT22;11727;52.134;5.052;2022-09-28T00:24:02;8.60;99.90
23116;DHT22;11727;52.134;5.052;2022-09-28T00:26:54;8.70;99.90
23116;DHT22;11727;52.134;5.052;2022-09-28T00:29:28;8.70;99.90
23116;DHT22;11727;52.134;5.052;2022-09-28T00:31:58;8.70;99.90
23116;DHT22;11727;52.134;5.052;2022-09-28T00:34:32;8.70;99.90
23116;DHT22;11727;52.134;5.052;2022-09-28T00:37:00;8.70;99.90
23116;DHT22;11727;52.134;5.052;2022-09-28T00:39:26;8.70;99.90
23116;DHT22;11727;52.134;5.052;2022-09-28T00:41:52;8.70;99.90
23116;DHT22;11727;52.134;5.052;2022-09-28T00:46:47;8.70;99.90
23116;DHT22;11727;52.134;5.052;2022-09-28T00:49:16;8.70;99.90
23116;DHT22;11727;52.134;5.052;2022-09-28T00:51:45;8.70;99.90
23116;DHT22;11727;52.134;5.052;2022-09-28T00:54:13;8.70;99.90
23116;DHT22;11727;52.134;5.052;2022-09-28T00:56:42;8.70;99.90
23116;DHT22;11727;52.134;5.052;2022-09-28T00:59:10;8.70;99.90
23116;DHT22;11727;52.134;5.052;2022-09-28T01:01:35;8.80;99.90
23116;DHT22;11727;52.134;5.052;2022-09-28T01:04:02;8.80;99.90
23116;DHT22;11727;52.134;5.052;2022-09-28T01:06:31;8.80;99.90
23116;DHT22;11727;52.134;5.052;2022-09-28T01:09:01;8.80;99.90
23116;DHT22;11727;52.134;5.052;2022-09-28T01:11:29;8.70;99.90
23116;DHT22;11727;52.134;5.052;2022-09-28T01:13:56;8.70;99.90
23116;DHT22;11727;52.134;5.052;2022-09-28T01:22:36;8.70;99.90
23116;DHT22;11727;52.134;5.052;2022-09-28T01:25:23;8.70;99.90
23116;DHT22;11727;52.134;5.052;2022-09-28T01:28:14;8.70;99.90
23116;DHT22;11727;52.134;5.052;2022-09-28T01:30:44;8.70;99.90
23116;DHT22;11727;52.134;5.052;2022-09-28T01:33:17;8.60;99.90
23116;DHT22;11727;52.134;5.052;2022-09-28T01:36:03;8.70;99.90
23116;DHT22;11727;52.134;5.052;2022-09-28T01:38:45;8.60;99.90
23116;DHT22;11727;52.134;5.052;2022-09-28T01:41:12;8.60;99.90
23116;DHT22;11727;52.134;5.052;2022-09-28T01:43:45;8.60;99.90
23116;DHT22;11727;52.134;5.052;2022-09-28T01:46:15;8.50;99.90
23116;DHT22;11727;52.134;5.052;2022-09-28T01:49:19;8.50;99.90
23116;DHT22;11727;52.134;5.052;2022-09-28T01:51:54;8.50;99.90
23116;DHT22;11727;52.134;5.052;2022-09-28T01:54:28;8.40;99.90
23116;DHT22;11727;52.134;5.052;2022-09-28T01:57:05;8.40;99.90
23116;DHT22;11727;52.134;5.052;2022-09-28T01:59:33;8.40;99.90
23116;DHT22;11727;52.134;5.052;2022-09-28T02:02:05;8.40;99.90
23116;DHT22;11727;52.134;5.052;2022-09-28T02:04:38;8.40;99.90
23116;DHT22;11727;52.134;5.052;2022-09-28T02:07:13;8.30;99.90
23116;DHT22;11727;52.134;5.052;2022-09-28T02:09:53;8.30;99.90
23116;DHT22;11727;52.134;5.052;2022-09-28T02:12:42;8.30;99.90
23116;DHT22;11727;52.134;5.052;2022-09-28T02:15:22;8.30;99.90
23116;DHT22;11727;52.134;5.052;2022-09-28T02:17:49;8.30;99.90
23116;DHT22;11727;52.134;5.052;2022-09-28T02:20:16;8.30;99.90
23116;DHT22;11727;52.134;5.052;2022-09-28T02:22:48;8.30;99.90
23116;DHT22;11727;52.134;5.052;2022-09-28T02:25:33;8.30;99.90
23116;DHT22;11727;52.134;5.052;2022-09-28T02:28:03;8.20;99.90
23116;DHT22;11727;52.134;5.052;2022-09-28T02:30:31;8.30;99.90
23116;DHT22;11727;52.134;5.052;2022-09-28T02:33:14;8.20;99.90
23116;DHT22;11727;52.134;5.052;2022-09-28T02:35:41;8.20;99.90
23116;DHT22;11727;52.134;5.052;2022-09-28T02:38:09;8.30;99.90
23116;DHT22;11727;52.134;5.052;2022-09-28T02:40:35;8.30;99.90
23116;DHT22;11727;52.134;5.052;2022-09-28T02:43:25;8.30;99.90
23116;DHT22;11727;52.134;5.052;2022-09-28T02:46:05;8.30;99.90
23116;DHT22;11727;52.134;5.052;2022-09-28T02:48:54;8.30;99.90
23116;DHT22;11727;52.134;5.052;2022-09-28T03:05:30;8.30;99.90
23116;DHT22;11727;52.134;5.052;2022-09-28T03:08:02;8.40;99.90
23116;DHT22;11727;52.134;5.052;2022-09-28T03:10:45;8.30;99.90
23116;DHT22;11727;52.134;5.052;2022-09-28T03:13:13;8.30;99.90
23116;DHT22;11727;52.134;5.052;2022-09-28T03:15:40;8.30;99.90
23116;DHT22;11727;52.134;5.052;2022-09-28T03:18:06;8.40;99.90
23116;DHT22;11727;52.134;5.052;2022-09-28T03:20:32;8.30;99.90
23116;DHT22;11727;52.134;5.052;2022-09-28T03:22:58;8.30;99.90
23116;DHT22;11727;52.134;5.052;2022-09-28T03:25:25;8.40;99.90
23116;DHT22;11727;52.134;5.052;2022-09-28T03:27:51;8.40;99.90
23116;DHT22;11727;52.134;5.052;2022-09-28T03:30:17;8.40;99.90
23116;DHT22;11727;52.134;5.052;2022-09-28T03:32:42;8.40;99.90
23116;DHT22;11727;52.134;5.052;2022-09-28T03:35:08;8.40;99.90
23116;DHT22;11727;52.134;5.052;2022-09-28T03:37:34;8.40;99.90
23116;DHT22;11727;52.134;5.052;2022-09-28T03:40:00;8.40;99.90
23116;DHT22;11727;52.134;5.052;2022-09-28T03:42:26;8.40;99.90
23116;DHT22;11727;52.134;5.052;2022-09-28T03:44:52;8.40;99.90
23116;DHT22;11727;52.134;5.052;2022-09-28T03:47:17;8.40;99.90
23116;DHT22;11727;52.134;5.052;2022-09-28T03:49:44;8.40;99.90
23116;DHT22;11727;52.134;5.052;2022-09-28T03:52:10;8.40;99.90
23116;DHT22;11727;52.134;5.052;2022-09-28T03:54:36;8.40;99.90
23116;DHT22;11727;52.134;5.052;2022-09-28T03:57:01;8.40;99.90
23116;DHT22;11727;52.134;5.052;2022-09-28T03:59:27;8.40;99.90
23116;DHT22;11727;52.134;5.052;2022-09-28T04:01:53;8.40;99.90
23116;DHT22;11727;52.134;5.052;2022-09-28T04:04:18;8.40;99.90
23116;DHT22;11727;52.134;5.052;2022-09-28T04:06:44;8.40;99.90
23116;DHT22;11727;52.134;5.052;2022-09-28T04:09:10;8.50;99.90
23116;DHT22;11727;52.134;5.052;2022-09-28T04:11:36;8.40;99.90
23116;DHT22;11727;52.134;5.052;2022-09-28T04:14:01;8.40;99.90
23116;DHT22;11727;52.134;5.052;2022-09-28T04:16:27;8.50;99.90
23116;DHT22;11727;52.134;5.052;2022-09-28T04:18:53;8.50;99.90
23116;DHT22;11727;52.134;5.052;2022-09-28T04:21:19;8.50;99.90
23116;DHT22;11727;52.134;5.052;2022-09-28T04:23:46;8.50;99.90
23116;DHT22;11727;52.134;5.052;2022-09-28T04:26:23;8.50;99.90
23116;DHT22;11727;52.134;5.052;2022-09-28T04:28:49;8.50;99.90
23116;DHT22;11727;52.134;5.052;2022-09-28T04:31:45;8.50;99.90
23116;DHT22;11727;52.134;5.052;2022-09-28T04:34:13;8.50;99.90
23116;DHT22;11727;52.134;5.052;2022-09-28T04:36:42;8.50;99.90
23116;DHT22;11727;52.134;5.052;2022-09-28T04:39:08;8.50;99.90
23116;DHT22;11727;52.134;5.052;2022-09-28T04:41:33;8.50;99.90
23116;DHT22;11727;52.134;5.052;2022-09-28T04:43:59;8.50;99.90
23116;DHT22;11727;52.134;5.052;2022-09-28T04:46:25;8.50;99.90
23116;DHT22;11727;52.134;5.052;2022-09-28T04:48:50;8.50;99.90
23116;DHT22;11727;52.134;5.052;2022-09-28T04:51:16;8.60;99.90
23116;DHT22;11727;52.134;5.052;2022-09-28T04:53:41;8.60;99.90
23116;DHT22;11727;52.134;5.052;2022-09-28T04:56:10;8.60;99.90
23116;DHT22;11727;52.134;5.052;2022-09-28T04:58:36;8.50;99.90
23116;DHT22;11727;52.134;5.052;2022-09-28T05:01:04;8.50;99.90
23116;DHT22;11727;52.134;5.052;2022-09-28T05:03:31;8.60;99.90
23116;DHT22;11727;52.134;5.052;2022-09-28T05:05:57;8.50;99.90
23116;DHT22;11727;52.134;5.052;2022-09-28T05:08:23;8.60;99.90
23116;DHT22;11727;52.134;5.052;2022-09-28T05:10:59;8.60;99.90
23116;DHT22;11727;52.134;5.052;2022-09-28T05:13:25;8.60;99.90
23116;DHT22;11727;52.134;5.052;2022-09-28T05:15:54;8.60;99.90
23116;DHT22;11727;52.134;5.052;2022-09-28T05:18:20;8.50;99.90
23116;DHT22;11727;52.134;5.052;2022-09-28T05:20:46;8.50;99.90
23116;DHT22;11727;52.134;5.052;2022-09-28T05:23:12;8.50;99.90
23116;DHT22;11727;52.134;5.052;2022-09-28T05:25:40;8.50;99.90
23116;DHT22;11727;52.134;5.052;2022-09-28T05:28:09;8.50;99.90
23116;DHT22;11727;52.134;5.052;2022-09-28T05:30:34;8.50;99.90
23116;DHT22;11727;52.134;5.052;2022-09-28T05:33:01;8.40;99.90
23116;DHT22;11727;52.134;5.052;2022-09-28T05:35:27;8.40;99.90
23116;DHT22;11727;52.134;5.052;2022-09-28T05:37:54;8.40;99.90
23116;DHT22;11727;52.134;5.052;2022-09-28T05:40:20;8.40;99.90
23116;DHT22;11727;52.134;5.052;2022-09-28T05:42:45;8.40;99.90
23116;DHT22;11727;52.134;5.052;2022-09-28T05:45:11;8.30;99.90
23116;DHT22;11727;52.134;5.052;2022-09-28T05:47:41;8.40;99.90
23116;DHT22;11727;52.134;5.052;2022-09-28T05:50:08;8.30;99.90
23116;DHT22;11727;52.134;5.052;2022-09-28T05:52:38;8.30;99.90
23116;DHT22;11727;52.134;5.052;2022-09-28T05:55:05;8.30;99.90
23116;DHT22;11727;52.134;5.052;2022-09-28T05:57:31;8.30;99.90
23116;DHT22;11727;52.134;5.052;2022-09-28T05:59:57;8.40;99.90
23116;DHT22;11727;52.134;5.052;2022-09-28T06:02:23;8.30;99.90
23116;DHT22;11727;52.134;5.052;2022-09-28T06:04:49;8.40;99.90
23116;DHT22;11727;52.134;5.052;2022-09-28T06:07:16;8.40;99.90
23116;DHT22;11727;52.134;5.052;2022-09-28T06:09:42;8.40;99.90
23116;DHT22;11727;52.134;5.052;2022-09-28T06:12:08;8.40;99.90
23116;DHT22;11727;52.134;5.052;2022-09-28T06:14:33;8.40;99.90
23116;DHT22;11727;52.134;5.052;2022-09-28T06:16:59;8.40;99.90
23116;DHT22;11727;52.134;5.052;2022-09-28T06:19:24;8.40;99.90
23116;DHT22;11727;52.134;5.052;2022-09-28T06:21:52;8.40;99.90
23116;DHT22;11727;52.134;5.052;2022-09-28T06:24:18;8.40;99.90
23116;DHT22;11727;52.134;5.052;2022-09-28T06:26:43;8.50;99.90
23116;DHT22;11727;52.134;5.052;2022-09-28T06:29:09;8.50;99.90
23116;DHT22;11727;52.134;5.052;2022-09-28T06:31:34;8.60;99.90
23116;DHT22;11727;52.134;5.052;2022-09-28T06:34:00;8.70;99.90
23116;DHT22;11727;52.134;5.052;2022-09-28T06:36:27;8.80;99.90
23116;DHT22;11727;52.134;5.052;2022-09-28T06:38:54;8.90;99.90
23116;DHT22;11727;52.134;5.052;2022-09-28T06:41:19;9.00;99.90
23116;DHT22;11727;52.134;5.052;2022-09-28T06:43:46;9.10;99.90
23116;DHT22;11727;52.134;5.052;2022-09-28T06:46:12;9.10;99.90
23116;DHT22;11727;52.134;5.052;2022-09-28T06:48:38;9.20;99.90
23116;DHT22;11727;52.134;5.052;2022-09-28T06:51:04;9.20;99.90
23116;DHT22;11727;52.134;5.052;2022-09-28T06:53:31;9.20;99.90
23116;DHT22;11727;52.134;5.052;2022-09-28T06:55:57;9.20;99.90
23116;DHT22;11727;52.134;5.052;2022-09-28T06:58:23;9.20;99.90
23116;DHT22;11727;52.134;5.052;2022-09-28T07:00:51;9.20;99.90
23116;DHT22;11727;52.134;5.052;2022-09-28T07:03:19;9.20;99.90
23116;DHT22;11727;52.134;5.052;2022-09-28T07:05:48;9.30;99.90
23116;DHT22;11727;52.134;5.052;2022-09-28T07:08:15;9.30;99.90
23116;DHT22;11727;52.134;5.052;2022-09-28T07:10:46;9.40;99.90
23116;DHT22;11727;52.134;5.052;2022-09-28T07:13:12;9.40;99.90
23116;DHT22;11727;52.134;5.052;2022-09-28T07:15:39;9.40;99.90
23116;DHT22;11727;52.134;5.052;2022-09-28T07:18:06;9.40;99.90
23116;DHT22;11727;52.134;5.052;2022-09-28T07:20:33;9.50;99.90
23116;DHT22;11727;52.134;5.052;2022-09-28T07:23:01;9.50;99.90
23116;DHT22;11727;52.134;5.052;2022-09-28T07:25:27;9.50;99.90
23116;DHT22;11727;52.134;5.052;2022-09-28T07:27:57;9.50;99.90
23116;DHT22;11727;52.134;5.052;2022-09-28T07:30:25;9.60;99.90
23116;DHT22;11727;52.134;5.052;2022-09-28T07:32:52;9.60;99.90
23116;DHT22;11727;52.134;5.052;2022-09-28T07:35:19;9.70;99.90
23116;DHT22;11727;52.134;5.052;2022-09-28T07:37:45;9.70;99.90
23116;DHT22;11727;52.134;5.052;2022-09-28T07:40:11;9.70;99.90
23116;DHT22;11727;52.134;5.052;2022-09-28T07:42:55;9.70;99.90
23116;DHT22;11727;52.134;5.052;2022-09-28T07:45:27;9.80;99.90
23116;DHT22;11727;52.134;5.052;2022-09-28T07:47:54;9.90;99.90
23116;DHT22;11727;52.134;5.052;2022-09-28T07:50:21;10.00;99.90
23116;DHT22;11727;52.134;5.052;2022-09-28T07:52:47;10.00;99.90
23116;DHT22;11727;52.134;5.052;2022-09-28T07:55:13;10.10;99.90
23116;DHT22;11727;52.134;5.052;2022-09-28T07:57:39;10.10;99.90
23116;DHT22;11727;52.134;5.052;2022-09-28T08:00:05;10.20;99.90
23116;DHT22;11727;52.134;5.052;2022-09-28T08:02:33;10.20;99.90
23116;DHT22;11727;52.134;5.052;2022-09-28T08:05:00;10.30;99.90
23116;DHT22;11727;52.134;5.052;2022-09-28T08:07:26;10.30;99.90
23116;DHT22;11727;52.134;5.052;2022-09-28T08:09:52;10.40;99.90
23116;DHT22;11727;52.134;5.052;2022-09-28T08:12:18;10.50;99.90
23116;DHT22;11727;52.134;5.052;2022-09-28T08:14:44;10.50;99.90
23116;DHT22;11727;52.134;5.052;2022-09-28T08:17:10;10.60;99.90
23116;DHT22;11727;52.134;5.052;2022-09-28T08:19:36;10.70;99.90
23116;DHT22;11727;52.134;5.052;2022-09-28T08:22:20;10.70;99.90
23116;DHT22;11727;52.134;5.052;2022-09-28T08:24:47;10.80;99.90
23116;DHT22;11727;52.134;5.052;2022-09-28T08:27:14;11.00;99.90
23116;DHT22;11727;52.134;5.052;2022-09-28T08:29:40;11.10;99.90
23116;DHT22;11727;52.134;5.052;2022-09-28T08:32:08;11.20;99.90
23116;DHT22;11727;52.134;5.052;2022-09-28T08:34:38;11.30;99.90
23116;DHT22;11727;52.134;5.052;2022-09-28T08:37:05;11.40;99.90
23116;DHT22;11727;52.134;5.052;2022-09-28T08:39:31;11.50;99.90
23116;DHT22;11727;52.134;5.052;2022-09-28T08:44:25;11.70;99.90
23116;DHT22;11727;52.134;5.052;2022-09-28T08:46:59;11.80;99.90
23116;DHT22;11727;52.134;5.052;2022-09-28T08:49:45;11.90;99.90
23116;DHT22;11727;52.134;5.052;2022-09-28T08:52:17;11.90;99.90
23116;DHT22;11727;52.134;5.052;2022-09-28T08:54:57;11.90;99.90
23116;DHT22;11727;52.134;5.052;2022-09-28T08:57:42;11.90;99.90
23116;DHT22;11727;52.134;5.052;2022-09-28T09:00:20;11.80;99.90
23116;DHT22;11727;52.134;5.052;2022-09-28T09:02:46;11.90;99.90
23116;DHT22;11727;52.134;5.052;2022-09-28T09:05:16;12.00;99.90
23116;DHT22;11727;52.134;5.052;2022-09-28T09:07:53;12.10;99.90
23116;DHT22;11727;52.134;5.052;2022-09-28T09:10:44;12.20;99.90
23116;DHT22;11727;52.134;5.052;2022-09-28T09:19:52;12.40;99.90
23116;DHT22;11727;52.134;5.052;2022-09-28T09:22:39;12.50;99.90
23116;DHT22;11727;52.134;5.052;2022-09-28T09:25:27;12.60;99.90
23116;DHT22;11727;52.134;5.052;2022-09-28T09:36:57;12.90;99.90
23116;DHT22;11727;52.134;5.052;2022-09-28T09:47:38;13.00;99.90
23116;DHT22;11727;52.134;5.052;2022-09-28T09:53:03;13.00;99.90
23116;DHT22;11727;52.134;5.052;2022-09-28T09:55:49;13.10;99.90
23116;DHT22;11727;52.134;5.052;2022-09-28T09:58:52;13.10;99.90
23116;DHT22;11727;52.134;5.052;2022-09-28T10:01:22;13.20;99.90
23116;DHT22;11727;52.134;5.052;2022-09-28T10:03:51;13.30;99.90
23116;DHT22;11727;52.134;5.052;2022-09-28T10:06:22;13.30;99.90
23116;DHT22;11727;52.134;5.052;2022-09-28T10:09:00;13.40;99.90
23116;DHT22;11727;52.134;5.052;2022-09-28T10:11:31;13.40;99.90
23116;DHT22;11727;52.134;5.052;2022-09-28T10:13:58;13.40;99.90
23116;DHT22;11727;52.134;5.052;2022-09-28T10:16:24;13.30;99.90
23116;DHT22;11727;52.134;5.052;2022-09-28T10:18:49;13.30;99.90
23116;DHT22;11727;52.134;5.052;2022-09-28T10:21:17;13.30;99.90
23116;DHT22;11727;52.134;5.052;2022-09-28T10:23:44;13.40;99.90
23116;DHT22;11727;52.134;5.052;2022-09-28T10:26:18;13.50;99.90
23116;DHT22;11727;52.134;5.052;2022-09-28T10:28:53;13.50;99.90
23116;DHT22;11727;52.134;5.052;2022-09-28T10:34:13;13.60;99.90
23116;DHT22;11727;52.134;5.052;2022-09-28T10:36:54;13.80;99.90
23116;DHT22;11727;52.134;5.052;2022-09-28T10:39:38;13.90;99.90
23116;DHT22;11727;52.134;5.052;2022-09-28T10:42:07;13.90;99.90
23116;DHT22;11727;52.134;5.052;2022-09-28T10:44:48;13.80;99.90
23116;DHT22;11727;52.134;5.052;2022-09-28T10:47:18;13.80;99.90
23116;DHT22;11727;52.134;5.052;2022-09-28T10:49:45;13.70;99.90
23116;DHT22;11727;52.134;5.052;2022-09-28T10:52:38;13.50;99.90
23116;DHT22;11727;52.134;5.052;2022-09-28T10:57:46;13.30;99.90
23116;DHT22;11727;52.134;5.052;2022-09-28T11:00:38;13.20;99.90
23116;DHT22;11727;52.134;5.052;2022-09-28T11:03:05;13.10;99.90
23116;DHT22;11727;52.134;5.052;2022-09-28T11:05:31;13.10;99.90
23116;DHT22;11727;52.134;5.052;2022-09-28T11:08:05;13.10;99.90
23116;DHT22;11727;52.134;5.052;2022-09-28T11:10:31;13.00;99.90
23116;DHT22;11727;52.134;5.052;2022-09-28T11:12:58;13.00;99.90
23116;DHT22;11727;52.134;5.052;2022-09-28T11:15:30;13.00;99.90
23116;DHT22;11727;52.134;5.052;2022-09-28T11:18:17;12.90;99.90
23116;DHT22;11727;52.134;5.052;2022-09-28T11:20:43;13.00;99.90
23116;DHT22;11727;52.134;5.052;2022-09-28T11:23:27;13.30;99.90
23116;DHT22;11727;52.134;5.052;2022-09-28T11:26:00;13.50;99.90
23116;DHT22;11727;52.134;5.052;2022-09-28T11:28:30;13.70;99.90
23116;DHT22;11727;52.134;5.052;2022-09-28T11:30:57;13.80;99.90
23116;DHT22;11727;52.134;5.052;2022-09-28T11:38:39;13.70;99.90
23116;DHT22;11727;52.134;5.052;2022-09-28T11:41:54;13.60;99.90
23116;DHT22;11727;52.134;5.052;2022-09-28T11:47:16;13.50;99.90
23116;DHT22;11727;52.134;5.052;2022-09-28T11:49:56;13.60;99.90
23116;DHT22;11727;52.134;5.052;2022-09-28T11:54:58;13.80;99.90
23116;DHT22;11727;52.134;5.052;2022-09-28T11:57:29;14.00;99.90
23116;DHT22;11727;52.134;5.052;2022-09-28T12:00:05;14.00;99.90
23116;DHT22;11727;52.134;5.052;2022-09-28T12:02:58;14.00;99.90
23116;DHT22;11727;52.134;5.052;2022-09-28T12:05:39;13.90;99.90
23116;DHT22;11727;52.134;5.052;2022-09-28T12:08:13;13.80;99.90
23116;DHT22;11727;52.134;5.052;2022-09-28T12:13:18;13.70;99.90
23116;DHT22;11727;52.134;5.052;2022-09-28T12:16:08;13.70;99.90
23116;DHT22;11727;52.134;5.052;2022-09-28T12:21:48;13.80;99.90
23116;DHT22;11727;52.134;5.052;2022-09-28T12:24:22;13.90;99.90
23116;DHT22;11727;52.134;5.052;2022-09-28T12:26:59;14.00;99.90
23116;DHT22;11727;52.134;5.052;2022-09-28T12:29:32;14.10;99.90
23116;DHT22;11727;52.134;5.052;2022-09-28T12:34:40;14.40;99.90
23116;DHT22;11727;52.134;5.052;2022-09-28T12:37:43;14.50;99.90
23116;DHT22;11727;52.134;5.052;2022-09-28T12:40:32;14.60;99.90
23116;DHT22;11727;52.134;5.052;2022-09-28T12:54:24;14.70;99.90
23116;DHT22;11727;52.134;5.052;2022-09-28T12:56:56;14.70;99.90
23116;DHT22;11727;52.134;5.052;2022-09-28T13:00:05;14.80;99.90
23116;DHT22;11727;52.134;5.052;2022-09-28T13:02:59;14.80;99.90
23116;DHT22;11727;52.134;5.052;2022-09-28T13:11:42;14.80;99.90
23116;DHT22;11727;52.134;5.052;2022-09-28T13:25:42;14.50;99.90
23116;DHT22;11727;52.134;5.052;2022-09-28T13:28:12;14.40;99.90
23116;DHT22;11727;52.134;5.052;2022-09-28T13:30:40;14.30;99.90
23116;DHT22;11727;52.134;5.052;2022-09-28T13:33:18;14.30;99.90
23116;DHT22;11727;52.134;5.052;2022-09-28T13:35:45;14.30;99.90
23116;DHT22;11727;52.134;5.052;2022-09-28T13:41:09;14.10;99.90
23116;DHT22;11727;52.134;5.052;2022-09-28T13:49:17;13.80;99.90
23116;DHT22;11727;52.134;5.052;2022-09-28T13:57:53;13.50;99.90
23116;DHT22;11727;52.134;5.052;2022-09-28T14:06:06;13.50;99.90
23116;DHT22;11727;52.134;5.052;2022-09-28T14:14:16;13.90;99.90
23116;DHT22;11727;52.134;5.052;2022-09-28T14:16:47;13.90;99.90
23116;DHT22;11727;52.134;5.052;2022-09-28T14:19:24;13.90;99.90
23116;DHT22;11727;52.134;5.052;2022-09-28T14:22:17;13.90;99.90
23116;DHT22;11727;52.134;5.052;2022-09-28T14:30:48;13.90;99.90
23116;DHT22;11727;52.134;5.052;2022-09-28T14:33:24;13.90;99.90
23116;DHT22;11727;52.134;5.052;2022-09-28T14:35:53;13.90;99.90
23116;DHT22;11727;52.134;5.052;2022-09-28T14:38:23;13.80;99.90
23116;DHT22;11727;52.134;5.052;2022-09-28T14:48:58;13.70;99.90
23116;DHT22;11727;52.134;5.052;2022-09-28T14:59:22;13.30;99.90
23116;DHT22;11727;52.134;5.052;2022-09-28T15:04:38;12.90;99.90
23116;DHT22;11727;52.134;5.052;2022-09-28T15:07:24;12.80;99.90
23116;DHT22;11727;52.134;5.052;2022-09-28T15:09:52;12.50;99.90
23116;DHT22;11727;52.134;5.052;2022-09-28T15:12:24;12.30;99.90
23116;DHT22;11727;52.134;5.052;2022-09-28T15:17:29;12.10;99.90
23116;DHT22;11727;52.134;5.052;2022-09-28T15:20:08;12.10;99.90
23116;DHT22;11727;52.134;5.052;2022-09-28T15:22:46;12.00;99.90
23116;DHT22;11727;52.134;5.052;2022-09-28T15:25:14;11.90;99.90
23116;DHT22;11727;52.134;5.052;2022-09-28T15:27:41;11.90;99.90
23116;DHT22;11727;52.134;5.052;2022-09-28T15:30:28;12.00;99.90
23116;DHT22;11727;52.134;5.052;2022-09-28T15:32:56;12.10;99.90
23116;DHT22;11727;52.134;5.052;2022-09-28T15:35:57;12.30;99.90
23116;DHT22;11727;52.134;5.052;2022-09-28T15:38:23;12.50;99.90
23116;DHT22;11727;52.134;5.052;2022-09-28T15:40:49;12.60;99.90
23116;DHT22;11727;52.134;5.052;2022-09-28T15:43:32;12.70;99.90
23116;DHT22;11727;52.134;5.052;2022-09-28T15:46:12;12.80;99.90
23116;DHT22;11727;52.134;5.052;2022-09-28T15:48:49;12.90;99.90
23116;DHT22;11727;52.134;5.052;2022-09-28T15:51:18;13.00;99.90
23116;DHT22;11727;52.134;5.052;2022-09-28T15:56:23;13.30;99.90
23116;DHT22;11727;52.134;5.052;2022-09-28T16:01:42;13.50;99.90
23116;DHT22;11727;52.134;5.052;2022-09-28T16:04:44;13.50;99.90
23116;DHT22;11727;52.134;5.052;2022-09-28T16:09:56;13.60;99.90
23116;DHT22;11727;52.134;5.052;2022-09-28T16:15:20;13.60;99.90
23116;DHT22;11727;52.134;5.052;2022-09-28T16:17:50;13.60;99.90
23116;DHT22;11727;52.134;5.052;2022-09-28T16:20:22;13.60;99.90
23116;DHT22;11727;52.134;5.052;2022-09-28T16:22:49;13.60;99.90
23116;DHT22;11727;52.134;5.052;2022-09-28T16:25:21;13.60;99.90
23116;DHT22;11727;52.134;5.052;2022-09-28T16:27:50;13.50;99.90
23116;DHT22;11727;52.134;5.052;2022-09-28T16:30:22;13.50;99.90
23116;DHT22;11727;52.134;5.052;2022-09-28T16:33:00;13.40;99.90
23116;DHT22;11727;52.134;5.052;2022-09-28T16:38:12;13.30;99.90
23116;DHT22;11727;52.134;5.052;2022-09-28T16:40:45;13.20;99.90
23116;DHT22;11727;52.134;5.052;2022-09-28T16:43:31;13.10;99.90
23116;DHT22;11727;52.134;5.052;2022-09-28T16:46:04;13.00;99.90
23116;DHT22;11727;52.134;5.052;2022-09-28T16:48:32;13.00;99.90
23116;DHT22;11727;52.134;5.052;2022-09-28T16:50:59;12.90;99.90
23116;DHT22;11727;52.134;5.052;2022-09-28T16:53:25;12.90;99.90
23116;DHT22;11727;52.134;5.052;2022-09-28T16:56:10;12.80;99.90
23116;DHT22;11727;52.134;5.052;2022-09-28T16:58:36;12.80;99.90
23116;DHT22;11727;52.134;5.052;2022-09-28T17:01:04;12.70;99.90
23116;DHT22;11727;52.134;5.052;2022-09-28T17:03:33;12.70;99.90
23116;DHT22;11727;52.134;5.052;2022-09-28T17:06:02;12.60;99.90
23116;DHT22;11727;52.134;5.052;2022-09-28T17:08:28;12.50;99.90
23116;DHT22;11727;52.134;5.052;2022-09-28T17:10:54;12.50;99.90
23116;DHT22;11727;52.134;5.052;2022-09-28T17:13:22;12.40;99.90
23116;DHT22;11727;52.134;5.052;2022-09-28T17:15:48;12.30;99.90
23116;DHT22;11727;52.134;5.052;2022-09-28T17:18:16;12.30;99.90
23116;DHT22;11727;52.134;5.052;2022-09-28T17:20:45;12.30;99.90
23116;DHT22;11727;52.134;5.052;2022-09-28T17:23:13;12.20;99.90
23116;DHT22;11727;52.134;5.052;2022-09-28T17:25:39;12.10;99.90
23116;DHT22;11727;52.134;5.052;2022-09-28T17:28:05;12.10;99.90
23116;DHT22;11727;52.134;5.052;2022-09-28T17:30:37;12.10;99.90
23116;DHT22;11727;52.134;5.052;2022-09-28T17:33:03;12.00;99.90
23116;DHT22;11727;52.134;5.052;2022-09-28T17:35:29;12.00;99.90
23116;DHT22;11727;52.134;5.052;2022-09-28T17:37:54;11.90;99.90
23116;DHT22;11727;52.134;5.052;2022-09-28T17:40:23;11.90;99.90
23116;DHT22;11727;52.134;5.052;2022-09-28T17:42:50;11.90;99.90
23116;DHT22;11727;52.134;5.052;2022-09-28T17:45:19;11.90;99.90
23116;DHT22;11727;52.134;5.052;2022-09-28T17:47:45;11.80;99.90
23116;DHT22;11727;52.134;5.052;2022-09-28T17:50:25;11.80;99.90
23116;DHT22;11727;52.134;5.052;2022-09-28T17:52:53;11.80;99.90
23116;DHT22;11727;52.134;5.052;2022-09-28T17:55:23;11.80;99.90
23116;DHT22;11727;52.134;5.052;2022-09-28T17:57:51;11.80;99.90
23116;DHT22;11727;52.134;5.052;2022-09-28T18:00:17;11.80;99.90
23116;DHT22;11727;52.134;5.052;2022-09-28T18:02:43;11.70;99.90
23116;DHT22;11727;52.134;5.052;2022-09-28T18:05:10;11.70;99.90
23116;DHT22;11727;52.134;5.052;2022-09-28T18:07:37;11.70;99.90
23116;DHT22;11727;52.134;5.052;2022-09-28T18:10:05;11.70;99.90
23116;DHT22;11727;52.134;5.052;2022-09-28T18:12:31;11.80;99.90
23116;DHT22;11727;52.134;5.052;2022-09-28T18:14:56;11.70;99.90
23116;DHT22;11727;52.134;5.052;2022-09-28T18:17:22;11.70;99.90
23116;DHT22;11727;52.134;5.052;2022-09-28T18:19:47;11.70;99.90
23116;DHT22;11727;52.134;5.052;2022-09-28T18:22:13;11.70;99.90
23116;DHT22;11727;52.134;5.052;2022-09-28T18:24:39;11.70;99.90
23116;DHT22;11727;52.134;5.052;2022-09-28T18:27:04;11.80;99.90
23116;DHT22;11727;52.134;5.052;2022-09-28T18:29:30;11.80;99.90
23116;DHT22;11727;52.134;5.052;2022-09-28T18:31:55;11.80;99.90
23116;DHT22;11727;52.134;5.052;2022-09-28T18:34:21;11.80;99.90
23116;DHT22;11727;52.134;5.052;2022-09-28T18:36:46;11.80;99.90
23116;DHT22;11727;52.134;5.052;2022-09-28T18:39:12;11.80;99.90
23116;DHT22;11727;52.134;5.052;2022-09-28T18:41:38;11.70;99.90
23116;DHT22;11727;52.134;5.052;2022-09-28T18:44:04;11.70;99.90
23116;DHT22;11727;52.134;5.052;2022-09-28T18:46:30;11.70;99.90
23116;DHT22;11727;52.134;5.052;2022-09-28T18:49:00;11.70;99.90
23116;DHT22;11727;52.134;5.052;2022-09-28T18:51:25;11.70;99.90
23116;DHT22;11727;52.134;5.052;2022-09-28T18:53:51;11.70;99.90